createdAt,value
2022-11-24T00:01:50.508Z,93855.52
2022-11-24T00:04:16.781Z,93852.47
2022-11-24T00:06:43.128Z,93856.97
2022-11-24T00:09:09.477Z,93857.92
2022-11-24T00:11:35.825Z,93857.92
2022-11-24T00:14:02.169Z,93856.77
2022-11-24T00:16:28.554Z,93859.20
2022-11-24T00:18:54.862Z,93863.06
2022-11-24T00:21:21.244Z,93868.34
2022-11-24T00:23:47.594Z,93871.90
2022-11-24T00:26:13.998Z,93869.45
2022-11-24T00:28:40.342Z,93868.17
2022-11-24T00:31:06.740Z,93875.08
2022-11-24T00:33:33.094Z,93877.81
2022-11-24T00:35:59.429Z,93880.05
2022-11-24T00:38:25.813Z,93880.98
2022-11-24T00:40:52.119Z,93878.41
2022-11-24T00:43:18.483Z,93873.90
2022-11-24T00:45:44.899Z,93874.72
2022-11-24T00:48:11.173Z,93882.44
2022-11-24T00:50:37.516Z,93881.15
2022-11-24T00:53:03.870Z,93883.38
2022-11-24T00:55:30.274Z,93882.91
2022-11-24T00:57:56.648Z,93892.39
2022-11-24T01:00:23.023Z,93886.12
2022-11-24T01:02:49.409Z,93886.59
2022-11-24T01:05:17.651Z,93890.29
2022-11-24T01:07:42.099Z,93888.82
2022-11-24T01:10:08.409Z,93886.25
2022-11-24T01:12:34.759Z,93887.06
2022-11-24T01:15:01.103Z,93894.60
2022-11-24T01:17:27.457Z,93892.84
2022-11-24T01:19:53.796Z,93888.17
2022-11-24T01:22:20.148Z,93883.96
2022-11-24T01:24:46.492Z,93895.08
2022-11-24T01:27:12.842Z,93890.56
2022-11-24T01:29:39.188Z,93884.38
2022-11-24T01:32:05.539Z,93883.44
2022-11-24T01:34:32.188Z,93884.88
2022-11-24T01:36:58.241Z,93876.19
2022-11-24T01:39:24.615Z,93877.16
2022-11-24T01:41:50.974Z,93879.39
2022-11-24T01:44:17.309Z,93872.95
2022-11-24T01:46:43.662Z,93876.00
2022-11-24T01:49:10.010Z,93880.34
2022-11-24T01:51:36.357Z,93884.36
2022-11-24T01:54:02.721Z,93891.92
2022-11-24T01:56:29.071Z,93893.36
2022-11-24T01:58:55.438Z,93889.03
2022-11-24T02:01:21.864Z,93890.92
2022-11-24T02:03:48.172Z,93893.97
2022-11-24T02:06:14.513Z,93894.78
2022-11-24T02:08:40.860Z,93887.53
2022-11-24T02:11:07.244Z,93888.82
2022-11-24T02:13:33.586Z,93886.41
2022-11-24T02:15:59.968Z,93892.84
2022-11-24T02:18:26.284Z,93893.66
2022-11-24T02:20:52.635Z,93892.97
2022-11-24T02:23:18.977Z,93895.07
2022-11-24T02:25:45.329Z,93894.41
2022-11-24T02:28:11.675Z,93894.88
2022-11-24T02:30:38.110Z,93896.52
2022-11-24T02:33:04.462Z,93895.70
2022-11-24T02:35:30.814Z,93899.69
2022-11-24T02:37:57.155Z,93895.02
2022-11-24T02:40:23.505Z,93892.12
2022-11-24T02:42:49.852Z,93894.70
2022-11-24T02:45:16.201Z,93898.88
2022-11-24T02:47:42.544Z,93902.08
2022-11-24T02:50:08.885Z,93896.46
2022-11-24T02:52:35.237Z,93896.46
2022-11-24T02:55:01.580Z,93909.33
2022-11-24T02:57:27.929Z,93903.49
2022-11-24T02:59:54.278Z,93899.50
2022-11-24T03:02:20.653Z,93902.20
2022-11-24T03:04:47.003Z,93895.94
2022-11-24T03:07:13.381Z,93892.17
2022-11-24T03:09:39.657Z,93902.27
2022-11-24T03:12:06.033Z,93897.89
2022-11-24T03:14:32.808Z,93897.89
2022-11-24T03:16:58.713Z,93905.29
2022-11-24T03:19:25.061Z,93904.61
2022-11-24T03:21:51.401Z,93908.65
2022-11-24T03:24:17.760Z,93912.04
2022-11-24T03:26:44.209Z,93912.20
2022-11-24T03:29:10.563Z,93913.67
2022-11-24T03:31:36.979Z,93914.30
2022-11-24T03:34:03.263Z,93925.59
2022-11-24T03:36:29.594Z,93924.77
2022-11-24T03:38:55.935Z,93925.18
2022-11-24T03:41:22.278Z,93924.84
2022-11-24T03:43:48.626Z,93929.16
2022-11-24T03:46:15.071Z,93940.69
2022-11-24T03:48:41.314Z,93934.31
2022-11-24T03:51:07.662Z,93938.45
2022-11-24T03:53:34.018Z,93938.30
2022-11-24T03:56:00.360Z,93946.83
2022-11-24T03:58:26.715Z,93949.56
2022-11-24T04:00:53.055Z,93948.75
2022-11-24T04:03:19.403Z,93956.00
2022-11-24T04:05:45.746Z,93954.55
2022-11-24T04:08:12.116Z,93963.84
2022-11-24T04:10:38.453Z,93965.25
2022-11-24T04:13:04.811Z,93972.03
2022-11-24T04:15:31.152Z,93962.68
2022-11-24T04:17:57.527Z,93956.13
2022-11-24T04:20:23.864Z,93963.97
2022-11-24T04:22:50.210Z,93968.64
2022-11-24T04:25:16.554Z,93971.69
2022-11-24T04:27:42.910Z,93979.41
2022-11-24T04:30:09.251Z,93981.98
2022-11-24T04:32:35.599Z,93981.04
2022-11-24T04:35:01.937Z,93981.32
2022-11-24T04:37:28.281Z,93993.71
2022-11-24T04:39:54.677Z,93990.80
2022-11-24T04:42:21.028Z,93995.81
2022-11-24T04:44:47.371Z,93992.77
2022-11-24T04:47:13.719Z,93981.32
2022-11-24T04:49:40.082Z,93993.25
2022-11-24T04:52:06.455Z,93990.80
2022-11-24T04:54:33.180Z,94003.06
2022-11-24T04:56:59.240Z,94001.56
2022-11-24T04:59:25.578Z,93999.95
2022-11-24T05:01:52.035Z,94001.09
2022-11-24T05:04:18.314Z,94003.37
2022-11-24T05:06:44.654Z,94006.30
2022-11-24T05:09:10.970Z,94009.00
2022-11-24T05:11:37.317Z,94009.69
2022-11-24T05:14:03.659Z,94013.08
2022-11-24T05:16:30.053Z,94009.97
2022-11-24T05:18:56.388Z,94009.06
2022-11-24T05:21:22.726Z,94012.73
2022-11-24T05:23:49.110Z,94021.11
2022-11-24T05:26:15.457Z,94013.48
2022-11-24T05:28:41.893Z,94022.56
2022-11-24T05:31:08.275Z,94020.05
2022-11-24T05:33:34.622Z,94015.47
2022-11-24T05:36:00.975Z,94012.42
2022-11-24T05:38:27.368Z,94015.88
2022-11-24T05:40:53.705Z,94016.88
2022-11-24T05:43:20.091Z,94016.94
2022-11-24T05:45:46.433Z,94028.31
2022-11-24T05:48:12.823Z,94030.12
2022-11-24T05:50:39.163Z,94028.43
2022-11-24T05:53:05.549Z,94028.62
2022-11-24T05:55:31.894Z,94028.96
2022-11-24T05:57:58.282Z,94020.80
2022-11-24T06:00:24.670Z,94025.53
2022-11-24T06:02:51.117Z,94020.09
2022-11-24T06:05:17.398Z,94022.62
2022-11-24T06:07:43.818Z,94026.43
2022-11-24T06:10:10.126Z,94038.84
2022-11-24T06:12:36.506Z,94042.89
2022-11-24T06:15:02.872Z,94047.28
2022-11-24T06:17:29.325Z,94044.41
2022-11-24T06:19:55.692Z,94045.70
2022-11-24T06:22:22.100Z,94046.23
2022-11-24T06:24:48.436Z,94044.34
2022-11-24T06:27:14.833Z,94050.84
2022-11-24T06:29:41.176Z,94053.77
2022-11-24T06:32:07.655Z,94053.63
2022-11-24T06:34:37.504Z,94059.09
2022-11-24T06:37:02.515Z,94066.88
2022-11-24T06:39:28.864Z,94067.75
2022-11-24T06:41:55.250Z,94076.27
2022-11-24T06:44:21.670Z,94080.38
2022-11-24T06:46:47.981Z,94083.93
2022-11-24T06:49:14.324Z,94081.25
2022-11-24T06:51:40.707Z,94095.13
2022-11-24T06:54:07.053Z,94099.23
2022-11-24T06:56:33.440Z,94100.00
2022-11-24T06:58:59.816Z,94103.23
2022-11-24T07:01:26.322Z,94105.68
2022-11-24T07:03:52.585Z,94111.55
2022-11-24T07:06:18.964Z,94115.28
2022-11-24T07:08:45.350Z,94117.36
2022-11-24T07:11:11.755Z,94116.59
2022-11-24T07:13:38.117Z,94122.57
2022-11-24T07:16:04.539Z,94118.88
2022-11-24T07:18:30.838Z,94126.48
2022-11-24T07:20:57.235Z,94132.30
2022-11-24T07:23:23.624Z,94132.83
2022-11-24T07:25:50.010Z,94139.14
2022-11-24T07:28:16.408Z,94135.34
2022-11-24T07:30:42.794Z,94140.98
2022-11-24T07:33:09.145Z,94142.27
2022-11-24T07:35:35.583Z,94140.56
2022-11-24T07:38:01.929Z,94152.16
2022-11-24T07:40:28.405Z,94156.22
2022-11-24T07:42:54.754Z,94158.06
2022-11-24T07:45:21.159Z,94163.41
2022-11-24T07:47:47.492Z,94159.53
2022-11-24T07:50:13.904Z,94159.35
2022-11-24T07:52:40.237Z,94160.53
2022-11-24T07:55:06.642Z,94160.16
2022-11-24T07:57:32.988Z,94168.84
2022-11-24T07:59:59.420Z,94168.03
2022-11-24T08:02:25.766Z,94187.53
2022-11-24T08:04:52.142Z,94187.53
2022-11-24T08:07:18.576Z,94190.66
2022-11-24T08:09:44.894Z,94192.72
2022-11-24T08:12:11.261Z,94192.59
2022-11-24T08:14:37.642Z,94197.56
2022-11-24T08:17:04.062Z,94200.67
2022-11-24T08:19:30.396Z,94201.20
2022-11-24T08:21:56.742Z,94207.44
2022-11-24T08:24:23.131Z,94212.59
2022-11-24T08:26:49.505Z,94212.59
2022-11-24T08:29:15.894Z,94211.65
2022-11-24T08:31:42.330Z,94217.76
2022-11-24T08:34:08.625Z,94219.28
2022-11-24T08:36:34.979Z,94219.09
2022-11-24T08:39:01.383Z,94225.73
2022-11-24T08:41:27.732Z,94232.34
2022-11-24T08:43:54.124Z,94225.61
2022-11-24T08:46:20.509Z,94222.89
2022-11-24T08:48:46.858Z,94222.89
2022-11-24T08:51:13.207Z,94252.30
2022-11-24T08:53:39.578Z,94243.14
2022-11-24T08:56:05.926Z,94243.14
2022-11-24T08:58:32.337Z,94249.48
2022-11-24T09:00:58.746Z,94255.17
2022-11-24T09:03:25.084Z,94258.38
2022-11-24T09:05:52.764Z,94259.73
2022-11-24T09:08:17.823Z,94259.73
2022-11-24T09:10:44.185Z,94259.73
2022-11-24T09:13:10.562Z,94266.42
2022-11-24T09:15:36.919Z,94267.71
2022-11-24T09:18:03.305Z,94272.34
2022-11-24T09:20:29.647Z,94263.15
2022-11-24T09:22:56.045Z,94256.80
2022-11-24T09:25:22.401Z,94256.80
2022-11-24T09:27:48.788Z,94271.11
2022-11-24T09:30:15.136Z,94272.88
2022-11-24T09:32:41.524Z,94275.77
2022-11-24T09:35:07.877Z,94261.28
2022-11-24T09:37:34.281Z,94270.31
2022-11-24T09:40:00.627Z,94275.29
2022-11-24T09:42:27.014Z,94276.21
2022-11-24T09:44:53.359Z,94276.11
2022-11-24T09:47:19.755Z,94274.77
2022-11-24T09:49:50.954Z,94272.18
2022-11-24T09:52:12.487Z,94269.77
2022-11-24T09:54:38.834Z,94280.98
2022-11-24T09:57:05.209Z,94274.58
2022-11-24T09:59:31.564Z,94274.58
2022-11-24T10:01:58.038Z,94287.83
2022-11-24T10:04:24.392Z,94296.57
2022-11-24T10:06:50.724Z,94296.57
2022-11-24T10:09:17.075Z,94300.97
2022-11-24T10:11:43.492Z,94295.65
2022-11-24T10:14:09.839Z,94295.65
2022-11-24T10:16:36.256Z,94303.50
2022-11-24T10:19:02.611Z,94304.41
2022-11-24T10:21:29.004Z,94298.63
2022-11-24T10:23:55.343Z,94298.63
2022-11-24T10:26:21.739Z,94298.09
2022-11-24T10:28:48.073Z,94302.78
2022-11-24T10:31:14.512Z,94294.41
2022-11-24T10:33:40.787Z,94298.80
2022-11-24T10:36:07.207Z,94294.28
2022-11-24T10:38:33.550Z,94299.09
2022-11-24T10:41:00.013Z,94297.63
2022-11-24T10:43:26.293Z,94302.25
2022-11-24T10:45:52.734Z,94305.30
2022-11-24T10:48:19.036Z,94308.29
2022-11-24T10:50:45.426Z,94308.66
2022-11-24T10:53:11.784Z,94308.66
2022-11-24T10:55:38.190Z,94310.23
2022-11-24T10:58:04.578Z,94308.71
2022-11-24T11:00:30.971Z,94308.00
2022-11-24T11:02:57.390Z,94294.03
2022-11-24T11:05:23.762Z,94286.30
2022-11-24T11:07:50.152Z,94296.86
2022-11-24T11:10:16.545Z,94301.79
2022-11-24T11:12:44.740Z,94297.41
2022-11-24T11:15:09.451Z,94302.34
2022-11-24T11:17:35.811Z,94302.79
2022-11-24T11:20:02.815Z,94293.13
2022-11-24T11:22:28.571Z,94293.13
2022-11-24T11:24:54.962Z,94305.69
2022-11-24T11:27:21.310Z,94312.66
2022-11-24T11:34:40.943Z,94308.27
2022-11-24T11:37:06.969Z,94275.39
2022-11-24T11:39:33.349Z,94289.96
2022-11-24T11:41:59.717Z,94298.23
2022-11-24T11:44:26.140Z,94298.23
2022-11-24T11:46:53.860Z,94309.80
2022-11-24T11:49:18.851Z,94303.27
2022-11-24T11:51:45.206Z,94303.27
2022-11-24T11:54:11.593Z,94299.87
2022-11-24T11:56:37.940Z,94291.95
2022-11-24T11:59:04.334Z,94284.91
2022-11-24T12:01:30.678Z,94293.13
2022-11-24T12:03:57.221Z,94293.13
2022-11-24T12:06:23.401Z,94305.55
2022-11-24T12:09:18.498Z,94329.26
2022-11-24T12:11:16.128Z,94329.26
2022-11-24T12:13:42.508Z,94314.87
2022-11-24T12:16:09.000Z,94324.49
2022-11-24T12:21:01.895Z,94333.84
2022-11-24T12:23:28.291Z,94326.34
2022-11-24T12:25:54.650Z,94326.34
2022-11-24T12:28:21.113Z,94307.94
2022-11-24T12:30:47.417Z,94321.15
2022-11-24T12:33:13.808Z,94331.07
2022-11-24T12:35:40.147Z,94333.87
2022-11-24T12:38:06.524Z,94333.86
2022-11-24T12:40:32.880Z,94335.34
2022-11-24T12:42:59.321Z,94332.09
2022-11-24T12:45:25.667Z,94332.09
2022-11-24T12:47:52.049Z,94342.30
2022-11-24T12:50:18.388Z,94357.39
2022-11-24T12:52:44.772Z,94342.77
2022-11-24T12:55:11.109Z,94346.36
2022-11-24T12:57:37.526Z,94343.58
2022-11-24T13:00:03.872Z,94344.57
2022-11-24T13:02:30.340Z,94332.75
2022-11-24T13:04:56.615Z,94324.47
2022-11-24T13:07:23.029Z,94336.64
2022-11-24T13:09:49.343Z,94331.27
2022-11-24T13:12:15.727Z,94333.53
2022-11-24T13:14:42.067Z,94337.94
2022-11-24T13:19:35.796Z,94347.31
2022-11-24T13:22:01.197Z,94347.31
2022-11-24T13:24:27.537Z,94330.14
2022-11-24T13:26:53.950Z,94330.14
2022-11-24T13:29:25.236Z,94343.43
2022-11-24T13:31:46.746Z,94347.48
2022-11-24T13:34:13.055Z,94337.27
2022-11-24T13:36:39.441Z,94355.72
2022-11-24T13:39:05.783Z,94352.78
2022-11-24T13:41:32.242Z,94351.36
2022-11-24T13:43:58.533Z,94334.98
2022-11-24T13:46:24.962Z,94353.44
2022-11-24T13:48:51.265Z,94361.06
2022-11-24T13:51:17.665Z,94362.68
2022-11-24T13:53:44.011Z,94360.09
2022-11-24T13:56:10.396Z,94361.38
2022-11-24T13:58:36.733Z,94358.94
2022-11-24T14:01:03.109Z,94355.19
2022-11-24T14:03:29.460Z,94361.69
2022-11-24T14:05:55.888Z,94364.27
2022-11-24T14:08:22.232Z,94370.60
2022-11-24T14:10:48.628Z,94370.60
2022-11-24T14:13:14.975Z,94379.52
2022-11-24T14:15:41.372Z,94385.16
2022-11-24T14:18:07.706Z,94387.63
2022-11-24T14:20:34.095Z,94393.73
2022-11-24T14:23:00.464Z,94396.03
2022-11-24T14:25:26.849Z,94403.51
2022-11-24T14:27:53.305Z,94400.73
2022-11-24T14:30:19.664Z,94390.86
2022-11-24T14:32:46.006Z,94383.25
2022-11-24T14:35:14.250Z,94383.25
2022-11-24T14:37:38.736Z,94396.84
2022-11-24T14:40:05.127Z,94376.44
2022-11-24T14:42:31.531Z,94394.77
2022-11-24T14:44:57.916Z,94386.16
2022-11-24T14:47:30.100Z,94388.91
2022-11-24T14:49:50.674Z,94390.86
2022-11-24T14:52:16.984Z,94391.19
2022-11-24T14:54:43.408Z,94399.45
2022-11-24T14:57:09.748Z,94384.05
2022-11-24T14:59:36.209Z,94395.38
2022-11-24T15:02:02.585Z,94396.37
2022-11-24T15:06:55.301Z,94408.36
2022-11-24T15:09:21.687Z,94408.36
2022-11-24T15:11:48.059Z,94410.93
2022-11-24T15:14:14.462Z,94411.77
2022-11-24T15:16:40.858Z,94404.61
2022-11-24T15:19:07.193Z,94411.43
2022-11-24T15:21:33.552Z,94424.09
2022-11-24T15:24:00.051Z,94426.98
2022-11-24T15:26:31.483Z,94425.53
2022-11-24T15:28:52.687Z,94435.40
2022-11-24T15:31:19.160Z,94438.78
2022-11-24T15:33:45.417Z,94437.17
2022-11-24T15:36:11.805Z,94426.95
2022-11-24T15:38:38.150Z,94437.37
2022-11-24T15:41:04.543Z,94442.17
2022-11-24T15:43:30.903Z,94449.16
2022-11-24T15:45:57.279Z,94442.34
2022-11-24T15:48:23.619Z,94447.05
2022-11-24T15:50:50.002Z,94445.10
2022-11-24T15:53:16.364Z,94444.17
2022-11-24T15:55:42.754Z,94425.45
2022-11-24T15:58:09.091Z,94455.13
2022-11-24T16:00:35.514Z,94455.13
2022-11-24T16:03:18.036Z,94453.70
2022-11-24T16:05:28.193Z,94459.36
2022-11-24T16:07:54.604Z,94459.36
2022-11-24T16:10:20.936Z,94466.95
2022-11-24T16:12:47.280Z,94461.79
2022-11-24T16:15:13.664Z,94471.00
2022-11-24T16:17:40.004Z,94477.17
2022-11-24T16:20:06.389Z,94477.17
2022-11-24T16:22:32.723Z,94473.09
2022-11-24T16:24:59.104Z,94474.70
2022-11-24T16:27:25.440Z,94472.45
2022-11-24T16:29:51.838Z,94474.89
2022-11-24T16:32:18.182Z,94474.89
2022-11-24T16:34:44.557Z,94471.46
2022-11-24T16:37:10.897Z,94471.46
2022-11-24T16:39:37.275Z,94455.08
2022-11-24T16:42:03.620Z,94470.65
2022-11-24T16:44:29.996Z,94473.89
2022-11-24T16:46:57.667Z,94473.91
2022-11-24T16:49:22.761Z,94478.76
2022-11-24T16:51:49.126Z,94468.01
2022-11-24T16:54:15.507Z,94474.20
2022-11-24T16:56:41.854Z,94474.20
2022-11-24T16:59:08.227Z,94482.28
2022-11-24T17:01:34.604Z,94478.08
2022-11-24T17:04:00.957Z,94486.36
2022-11-24T17:06:27.294Z,94470.15
2022-11-24T17:08:53.700Z,94473.53
2022-11-24T17:11:20.047Z,94473.84
2022-11-24T17:13:46.423Z,94458.23
2022-11-24T17:16:12.864Z,94460.37
2022-11-24T17:18:39.228Z,94474.45
2022-11-24T17:21:09.526Z,94456.58
2022-11-24T17:23:31.936Z,94456.58
2022-11-24T17:25:58.275Z,94469.45
2022-11-24T17:28:24.666Z,94468.63
2022-11-24T17:30:51.006Z,94467.14
2022-11-24T17:33:17.381Z,94469.56
2022-11-24T17:35:43.724Z,94486.12
2022-11-24T17:38:10.101Z,94481.25
2022-11-24T17:40:36.436Z,94481.22
2022-11-24T17:43:02.821Z,94464.83
2022-11-24T17:45:29.379Z,94479.89
2022-11-24T17:47:55.549Z,94463.47
2022-11-24T17:50:25.672Z,94463.47
2022-11-24T17:52:48.270Z,94466.54
2022-11-24T17:55:14.613Z,94463.30
2022-11-24T17:57:40.991Z,94458.77
2022-11-24T18:00:07.330Z,94458.77
2022-11-24T18:02:33.831Z,94474.65
2022-11-24T18:05:00.048Z,94468.17
2022-11-24T18:07:26.482Z,94472.70
2022-11-24T18:09:52.788Z,94475.13
2022-11-24T18:12:19.197Z,94478.88
2022-11-24T18:14:47.977Z,94478.88
2022-11-24T18:17:14.367Z,94471.55
2022-11-24T18:19:40.726Z,94478.33
2022-11-24T18:22:07.147Z,94478.33
2022-11-24T18:24:33.416Z,94462.55
2022-11-24T18:26:59.812Z,94462.55
2022-11-24T18:29:26.147Z,94479.94
2022-11-24T18:31:52.619Z,94479.94
2022-11-24T18:34:18.928Z,94475.37
2022-11-24T18:36:45.309Z,94486.85
2022-11-24T18:39:11.690Z,94467.22
2022-11-24T18:41:38.084Z,94464.47
2022-11-24T18:44:04.424Z,94465.59
2022-11-24T18:46:30.810Z,94465.59
2022-11-24T18:48:57.159Z,94486.51
2022-11-24T18:51:23.601Z,94454.98
2022-11-24T18:53:49.878Z,94454.98
2022-11-24T18:56:16.322Z,94487.12
2022-11-24T18:58:42.726Z,94487.12
2022-11-24T19:01:09.183Z,94489.54
2022-11-24T19:03:35.444Z,94481.47
2022-11-24T19:06:01.827Z,94481.47
2022-11-24T19:08:28.179Z,94480.57
2022-11-24T19:10:54.566Z,94484.80
2022-11-24T19:13:20.903Z,94487.73
2022-11-24T19:15:47.297Z,94487.73
2022-11-24T19:18:13.665Z,94494.52
2022-11-24T19:20:40.991Z,94494.94
2022-11-24T19:23:06.418Z,94494.94
2022-11-24T19:25:32.793Z,94490.88
2022-11-24T19:27:59.146Z,94490.88
2022-11-24T19:30:25.545Z,94499.81
2022-11-24T19:32:51.881Z,94499.81
2022-11-24T19:35:18.259Z,94507.11
2022-11-24T19:37:44.600Z,94503.87
2022-11-24T19:40:10.982Z,94510.65
2022-11-24T19:42:37.328Z,94517.28
2022-11-24T19:45:07.061Z,94513.36
2022-11-24T19:47:33.403Z,94517.11
2022-11-24T19:49:59.786Z,94514.61
2022-11-24T19:52:26.144Z,94514.61
2022-11-24T19:54:52.558Z,94524.53
2022-11-24T19:57:18.898Z,94521.73
2022-11-24T19:59:45.348Z,94520.57
2022-11-24T20:02:11.747Z,94525.45
2022-11-24T20:04:38.080Z,94531.13
2022-11-24T20:07:04.425Z,94528.50
2022-11-24T20:09:30.808Z,94538.69
2022-11-24T20:11:57.147Z,94538.69
2022-11-24T20:14:23.534Z,94543.25
2022-11-24T20:16:49.961Z,94540.19
2022-11-24T20:19:16.304Z,94543.39
2022-11-24T20:21:42.648Z,94553.91
2022-11-24T20:24:10.516Z,94550.98
2022-11-24T20:26:35.423Z,94550.98
2022-11-24T20:29:01.800Z,94550.32
2022-11-24T20:31:28.229Z,94550.32
2022-11-24T20:33:54.527Z,94548.61
2022-11-24T20:36:20.866Z,94549.03
2022-11-24T20:38:47.251Z,94553.78
2022-11-24T20:41:13.599Z,94546.37
2022-11-24T20:43:39.993Z,94558.01
2022-11-24T20:46:06.428Z,94558.31
2022-11-24T20:48:32.743Z,94563.48
2022-11-24T20:50:59.088Z,94564.95
2022-11-24T20:53:25.473Z,94567.97
2022-11-24T20:55:51.813Z,94567.97
2022-11-24T20:58:18.184Z,94563.91
2022-11-24T21:00:44.568Z,94568.14
2022-11-24T21:03:10.919Z,94548.70
2022-11-24T21:05:37.266Z,94548.70
2022-11-24T21:08:03.647Z,94577.67
2022-11-24T21:10:29.985Z,94577.67
2022-11-24T21:12:56.368Z,94574.42
2022-11-24T21:15:22.715Z,94577.33
2022-11-24T21:17:49.099Z,94554.22
2022-11-24T21:20:15.435Z,94574.03
2022-11-24T21:22:41.828Z,94579.55
2022-11-24T21:25:08.164Z,94589.85
2022-11-24T21:27:36.939Z,94569.74
2022-11-24T21:30:00.888Z,94569.74
2022-11-24T21:32:27.268Z,94589.85
2022-11-24T21:34:53.617Z,94586.66
2022-11-24T21:37:19.990Z,94592.91
2022-11-24T21:39:46.427Z,94592.91
2022-11-24T21:42:12.740Z,94571.15
2022-11-24T21:44:39.107Z,94571.15
2022-11-24T21:47:05.503Z,94586.45
2022-11-24T21:49:31.838Z,94580.14
2022-11-24T21:51:58.255Z,94588.03
2022-11-24T21:54:24.602Z,94588.33
2022-11-24T21:56:51.015Z,94598.83
2022-11-24T21:59:17.360Z,94590.60
2022-11-24T22:01:43.745Z,94586.50
2022-11-24T22:04:10.134Z,94587.03
2022-11-24T22:06:36.515Z,94586.56
2022-11-24T22:09:02.858Z,94589.25
2022-11-24T22:11:29.241Z,94581.33
2022-11-24T22:13:55.587Z,94584.42
2022-11-24T22:16:22.060Z,94582.97
2022-11-24T22:18:48.424Z,94585.56
2022-11-24T22:21:14.790Z,94585.72
2022-11-24T22:23:41.141Z,94583.92
2022-11-24T22:26:07.525Z,94590.08
2022-11-24T22:28:33.867Z,94588.56
2022-11-24T22:31:00.257Z,94592.95
2022-11-24T22:33:26.605Z,94590.66
2022-11-24T22:35:53.029Z,94597.59
2022-11-24T22:38:19.355Z,94606.30
2022-11-24T22:40:45.755Z,94603.38
2022-11-24T22:43:12.135Z,94602.91
2022-11-24T22:45:38.572Z,94605.48
2022-11-24T22:48:04.868Z,94608.84
2022-11-24T22:50:31.288Z,94609.66
2022-11-24T22:52:57.634Z,94607.73
2022-11-24T22:55:24.018Z,94608.02
2022-11-24T22:57:54.520Z,94611.42
2022-11-24T23:00:16.760Z,94613.88
2022-11-24T23:02:43.156Z,94610.95
2022-11-24T23:05:09.525Z,94613.64
2022-11-24T23:07:35.941Z,94615.59
2022-11-24T23:10:02.250Z,94619.34
2022-11-24T23:12:28.597Z,94625.63
2022-11-24T23:14:54.978Z,94631.93
2022-11-24T23:17:21.321Z,94637.39
2022-11-24T23:19:47.714Z,94638.05
2022-11-24T23:22:14.052Z,94638.69
2022-11-24T23:24:40.437Z,94635.75
2022-11-24T23:27:06.787Z,94642.19
2022-11-24T23:29:33.164Z,94648.91
2022-11-24T23:31:59.610Z,94644.24
2022-11-24T23:34:25.907Z,94646.32
2022-11-24T23:36:52.252Z,94647.84
2022-11-24T23:39:18.641Z,94651.78
2022-11-24T23:41:44.983Z,94647.14
2022-11-24T23:44:11.402Z,94646.61
2022-11-24T23:46:37.739Z,94645.00
2022-11-24T23:49:04.123Z,94656.77
2022-11-24T23:51:30.465Z,94653.08
2022-11-24T23:53:56.859Z,94660.83
2022-11-24T23:56:23.206Z,94650.02
2022-11-24T23:58:49.592Z,94646.77
